Taitung Airport
RCFN : now visible

Airfield :











YOU CAN JOIN US ON...

 
LOGIN :

Register | Disclaimer

   EN    FR    IT 

 









Legend :    VFR   Marginal VFR   IFR   Intensive IFR   Very Intensive IFR
Visi :
Ceiling :
>= 8 km
>= 3000ft
5 to 8 km
1000 to 3000 ft
1500m to 5 km
500 to 1000 ft
800 to 1500m
200 to 500 ft
< 800m
< 200 ft
Symbols :   Thunderstorms  Fog  Heavy snow  Heavy precipitations  Wind > 20 kt






- Airport Elevation : 143 ft
- IATA code : TTT


RCFN - Taitung

CURRENT METAR :
  • 210530Z 01010KT 340V060 9999 FEW015 SCT070 BKN100 27/18 Q1013 NOSIG RMK A2993

EXPIRED METARs :
  • 210500Z 01010KT 320V060 9999 FEW030 SCT065 BKN080 27/17 Q1013 NOSIG RMK A2994
  • 210430Z 36008KT 300V060 9999 FEW040 BKN070 28/17 Q1014 NOSIG RMK A2997
  • 210400Z 01007KT 260V070 9999 FEW030 BKN070 28/18 Q1015 NOSIG RMK A2998
  • 210330Z 01007KT 270V080 9999 FEW030 BKN070 27/17 Q1015 NOSIG RMK A2999
  • 210300Z 01010KT 310V040 9999 FEW030 BKN070 26/17 Q1016 NOSIG RMK A3001

TAF TAF RCFN
Valid from the 21 at 06:00 until the 22 at 06:00 UTC


210500Z 2106/2206 36005KT 9999 FEW015 BKN032
TEMPO 2106/2112 03012KT 5000 RA FEW010 BKN017
BECMG 2200/2202 04005KT
TEMPO 2200/2206 FEW010 BKN017 BKN040



MET'MAP, your aeronautical weather chart ! - Copyright ORBIFLY December 2007 - Disclaimer

ORBIFLY MET'MAP TEAM :

Programming & Development : Alexandra Zaïnal
Concept & Development : Baudouin d'Aumeries
Co-Development & Prog : Marc-Olivier Méhu
Technical & hardware support : Manuel Goepfert

Contact : metmap@orbifly.com




SOURCES & CREDITS :

   NOAA       Earth
Advisory